Friday, May 25, 2018, 8:33 AM EDT
Back to Local

KAUG, Augusta State Airport

Location: Augusta, ME, United States Lat: 44.317
Local Time: 8:33 AM EDT (12:33 GMT) Lon: -69.8
Time Zone: US/Eastern Elev: 351 ft

Show me the last for .
Show Decoded

2018-05-25 07:53 METAR KAUG 251153Z AUTO 23007G15KT 10SM CLR 17/08 A2979 RMK AO2 SLP087 T01720083
                 10172 20083 57009 =
2018-05-25 06:53 METAR KAUG 251053Z AUTO 23006KT 10SM CLR 13/08 A2980 RMK AO2 SLP090 T01330083 =
2018-05-25 05:53 METAR KAUG 250953Z AUTO VRB05KT 10SM CLR 10/08 A2981 RMK AO2 SLP094 T01000083 =
2018-05-25 04:53 METAR KAUG 250853Z AUTO VRB06KT 10SM CLR 09/08 A2981 RMK AO2 SLP097 T00890083
                 56029 =
2018-05-25 03:53 METAR KAUG 250753Z AUTO 20004KT 10SM CLR 09/08 A2984 RMK AO2 SLP105 T00890083 =
2018-05-25 02:53 METAR KAUG 250653Z AUTO 20005KT 9SM CLR 09/08 A2986 RMK AO2 SLP112 T00890083 =
2018-05-25 01:53 METAR KAUG 250553Z AUTO 18005KT 10SM CLR 09/08 A2990 RMK AO2 SLP126 T00890083
                 10117 20089 58033 =
2018-05-25 00:53 METAR KAUG 250453Z AUTO 19003KT 10SM CLR 09/08 A2994 RMK AO2 SLP139 T00890078
                 401890078 =
2018-05-24 23:53 METAR KAUG 250353Z AUTO VRB03KT 10SM CLR 09/08 A2998 RMK AO2 SLP151 T00940078 =
2018-05-24 22:53 METAR KAUG 250253Z AUTO VRB03KT 10SM FEW110 09/08 A3000 RMK AO2 SLP160 T00940078
                 58009 =
2018-05-24 21:53 METAR KAUG 250153Z AUTO 17005KT 10SM FEW110 10/07 A3002 RMK AO2 SLP168 T01000072
                 =
2018-05-24 20:53 METAR KAUG 250053Z AUTO VRB06KT 10SM CLR 11/07 A3003 RMK AO2 SLP169 T01060072 =
2018-05-24 19:53 METAR KAUG 242353Z AUTO VRB05G14KT 10SM CLR 12/07 A3003 RMK AO2 SLP170 T01170072
                 10183 20117 55003 =
2018-05-24 18:53 METAR KAUG 242253Z AUTO 18008G17KT 150V210 10SM CLR 13/07 A3002 RMK AO2 SLP168
                 T01280067 =
2018-05-24 17:53 METAR KAUG 242153Z AUTO 18010G19KT 10SM CLR 14/07 A3002 RMK AO2 SLP167 T01390067
                 =
2018-05-24 16:53 METAR KAUG 242053Z AUTO 20008G17KT 150V230 10SM CLR 15/07 A3003 RMK AO2 SLP172
                 T01500072 56007 =
2018-05-24 15:53 METAR KAUG 241953Z AUTO 20009G19KT 170V250 10SM CLR 16/08 A3004 RMK AO2 SLP175
                 T01610078 =
2018-05-24 14:53 METAR KAUG 241853Z AUTO 17010G17KT 10SM CLR 17/08 A3004 RMK AO2 SLP174 T01720083
                 =
2018-05-24 13:53 METAR KAUG 241753Z AUTO 15011G17KT 10SM BKN050 BKN060 18/07 A3006 RMK AO2 SLP178
                 T01780072 10189 20089 58017 =
2018-05-24 12:53 METAR KAUG 241653Z AUTO 18007KT 150V210 10SM FEW047 FEW075 17/07 A3008 RMK AO2
                 SLP186 T01720067 =
2018-05-24 11:53 METAR KAUG 241553Z AUTO VRB04KT 10SM FEW042 SCT060 17/07 A3010 RMK AO2 SLP192
                 T01670072 =
2018-05-24 10:53 METAR KAUG 241453Z AUTO 15006KT 10SM SCT022 SCT028 14/08 A3011 RMK AO2 SLP196
                 T01390078 58001 =
2018-05-24 09:53 METAR KAUG 241353Z AUTO 18007KT 10SM OVC016 13/08 A3011 RMK AO2 SLP196 T01280083
                 =
2018-05-24 09:38 METAR KAUG 241338Z AUTO 17006KT 10SM OVC015 13/08 A3011 RMK AO2 T01280083 =
2018-05-24 08:53 METAR KAUG 241253Z AUTO VRB05KT 10SM OVC011 11/08 A3012 RMK AO2 SLP199 T01110078
                 =
2018-05-24 08:35 METAR KAUG 241235Z AUTO VRB04KT 10SM BKN010 BKN017 BKN031 11/08 A3011 RMK AO2
                 T01060078 =

Support USWX by starting your Amazon purchase here.